createdAt,value
2022-08-18T00:01:11.107Z,99620.88
2022-08-18T00:03:57.084Z,99632.81
2022-08-18T00:06:30.417Z,99635.03
2022-08-18T00:09:00.063Z,99639.88
2022-08-18T00:11:41.245Z,99637.16
2022-08-18T00:14:21.632Z,99624.16
2022-08-18T00:16:53.716Z,99620.88
2022-08-18T00:19:47.158Z,99626.25
2022-08-18T00:22:16.800Z,99619.22
2022-08-18T00:24:48.143Z,99626.78
2022-08-18T00:27:22.937Z,99622.44
2022-08-18T00:29:53.470Z,99620.78
2022-08-18T00:32:24.441Z,99612.31
2022-08-18T00:34:52.759Z,99613.66
2022-08-18T00:37:23.848Z,99610.94
2022-08-18T00:39:53.786Z,99609.59
2022-08-18T00:42:28.971Z,99618.00
2022-08-18T00:45:03.202Z,99615.03
2022-08-18T00:47:32.804Z,99610.44
2022-08-18T00:50:22.811Z,99608.81
2022-08-18T00:52:55.087Z,99611.53
2022-08-18T00:55:24.348Z,99610.94
2022-08-18T00:57:54.138Z,99603.03
2022-08-18T01:00:23.511Z,99604.41
2022-08-18T01:02:55.841Z,99604.41
2022-08-18T01:05:35.054Z,99612.00
2022-08-18T01:08:06.218Z,99606.00
2022-08-18T01:10:38.161Z,99615.25
2022-08-18T01:13:07.660Z,99610.88
2022-08-18T01:15:36.817Z,99609.25
2022-08-18T01:18:29.259Z,99611.16
2022-08-18T01:21:17.195Z,99606.78
2022-08-18T01:23:48.123Z,99608.69
2022-08-18T01:26:16.916Z,99607.88
2022-08-18T01:28:46.947Z,99609.50
2022-08-18T01:31:31.380Z,99606.53
2022-08-18T01:34:01.225Z,99607.59
2022-08-18T01:36:30.475Z,99605.97
2022-08-18T01:39:01.266Z,99610.84
2022-08-18T01:41:33.452Z,99603.22
2022-08-18T01:44:03.012Z,99605.38
2022-08-18T01:46:34.280Z,99599.94
2022-08-18T01:49:03.846Z,99607.25
2022-08-18T01:51:40.316Z,99599.94
2022-08-18T01:54:13.222Z,99601.03
2022-08-18T01:56:43.142Z,99598.00
2022-08-18T01:59:15.220Z,99597.19
2022-08-18T02:01:53.146Z,99599.34
2022-08-18T02:04:35.700Z,99592.28
2022-08-18T02:07:08.139Z,99593.09
2022-08-18T02:09:39.939Z,99603.69
2022-08-18T02:12:10.468Z,99600.97
2022-08-18T02:14:39.915Z,99599.84
2022-08-18T02:17:11.058Z,99599.59
2022-08-18T02:19:42.349Z,99598.22
2022-08-18T02:22:13.149Z,99598.22
2022-08-18T02:24:44.931Z,99598.50
2022-08-18T02:27:14.614Z,99601.47
2022-08-18T02:30:02.668Z,99597.66
2022-08-18T02:32:31.329Z,99600.38
2022-08-18T02:35:01.153Z,99585.75
2022-08-18T02:37:31.213Z,99591.16
2022-08-18T02:40:02.233Z,99586.25
2022-08-18T02:42:33.903Z,99585.41
2022-08-18T02:45:03.194Z,99595.47
2022-08-18T02:47:33.812Z,99592.19
2022-08-18T02:50:03.136Z,99590.56
2022-08-18T02:52:35.227Z,99585.66
2022-08-18T02:55:06.941Z,99585.91
2022-08-18T02:57:36.203Z,99579.09
2022-08-18T03:00:06.404Z,99584.50
2022-08-18T03:02:41.117Z,99587.78
2022-08-18T03:05:14.666Z,99592.41
2022-08-18T03:07:44.064Z,99598.66
2022-08-18T03:10:33.131Z,99590.50
2022-08-18T03:13:05.141Z,99597.03
2022-08-18T03:15:34.252Z,99594.31
2022-08-18T03:18:03.654Z,99593.22
2022-08-18T03:20:33.934Z,99586.16
2022-08-18T03:23:10.114Z,99591.59
2022-08-18T03:25:46.243Z,99589.94
2022-08-18T03:28:15.362Z,99601.63
2022-08-18T03:30:44.838Z,99601.63
2022-08-18T03:33:16.004Z,99604.34
2022-08-18T03:35:44.092Z,99601.63
2022-08-18T03:38:13.147Z,99609.53
2022-08-18T03:40:43.617Z,99602.47
2022-08-18T03:43:49.555Z,99606.22
2022-08-18T03:46:03.547Z,99613.84
2022-08-18T03:48:33.170Z,99611.66
2022-08-18T03:51:05.491Z,99610.59
2022-08-18T03:53:37.048Z,99620.63
2022-08-18T03:56:09.500Z,99616.28
2022-08-18T03:58:40.094Z,99603.78
2022-08-18T04:01:09.134Z,99618.44
2022-08-18T04:03:40.754Z,99620.31
2022-08-18T04:06:12.624Z,99620.31
2022-08-18T04:08:42.399Z,99617.63
2022-08-18T04:11:13.044Z,99617.63
2022-08-18T04:13:43.730Z,99628.47
2022-08-18T04:16:13.214Z,99631.47
2022-08-18T04:18:42.403Z,99630.63
2022-08-18T04:21:13.685Z,99637.72
2022-08-18T04:23:43.829Z,99633.91
2022-08-18T04:26:19.146Z,99641.00
2022-08-18T04:28:50.052Z,99649.66
2022-08-18T04:31:23.616Z,99638.81
2022-08-18T04:33:53.021Z,99642.09
2022-08-18T04:36:22.401Z,99644.56
2022-08-18T04:38:52.088Z,99651.63
2022-08-18T04:41:27.594Z,99650.28
2022-08-18T04:43:59.325Z,99650.03
2022-08-18T04:46:28.655Z,99659.00
2022-08-18T04:48:59.716Z,99660.63
2022-08-18T04:52:38.972Z,99661.97
2022-08-18T04:54:18.428Z,99668.22
2022-08-18T04:56:47.664Z,99656.75
2022-08-18T04:59:18.478Z,99660.22
2022-08-18T05:01:48.184Z,99667.25
2022-08-18T05:04:18.503Z,99656.66
2022-08-18T05:06:47.884Z,99658.59
2022-08-18T05:09:22.809Z,99657.75
2022-08-18T05:11:52.762Z,99662.13
2022-08-18T05:14:23.219Z,99661.03
2022-08-18T05:16:52.054Z,99667.28
2022-08-18T05:19:23.464Z,99668.13
2022-08-18T05:21:59.605Z,99666.47
2022-08-18T05:24:36.858Z,99668.13
2022-08-18T05:27:08.252Z,99663.53
2022-08-18T05:29:41.513Z,99665.44
2022-08-18T05:32:12.380Z,99669.81
2022-08-18T05:35:04.627Z,99676.34
2022-08-18T05:37:37.180Z,99676.91
2022-08-18T05:40:11.425Z,99676.41
2022-08-18T05:42:41.234Z,99676.41
2022-08-18T05:45:13.320Z,99674.56
2022-08-18T05:47:42.848Z,99673.78
2022-08-18T05:50:13.293Z,99671.38
2022-08-18T05:52:45.062Z,99667.00
2022-08-18T05:55:34.985Z,99671.69
2022-08-18T05:58:05.472Z,99673.31
2022-08-18T06:01:26.171Z,99670.06
2022-08-18T06:03:57.918Z,99670.13
2022-08-18T06:06:29.595Z,99681.25
2022-08-18T06:08:59.148Z,99688.88
2022-08-18T06:11:28.618Z,99670.72
2022-08-18T06:13:59.861Z,99680.56
2022-08-18T06:16:37.191Z,99683.28
2022-08-18T06:19:11.031Z,99681.72
2022-08-18T06:21:42.847Z,99692.84
2022-08-18T06:24:18.921Z,99687.19
2022-08-18T06:26:51.734Z,99683.94
2022-08-18T06:29:28.227Z,99687.22
2022-08-18T06:32:01.266Z,99676.91
2022-08-18T06:34:37.311Z,99689.16
2022-08-18T06:37:10.092Z,99684.25
2022-08-18T06:39:44.026Z,99682.91
2022-08-18T06:42:13.700Z,99683.47
2022-08-18T06:44:45.810Z,99681.34
2022-08-18T06:47:16.152Z,99686.25
2022-08-18T06:49:48.442Z,99689.53
2022-08-18T06:52:27.284Z,99686.28
2022-08-18T06:54:57.482Z,99692.28
2022-08-18T06:57:30.404Z,99689.28
2022-08-18T07:00:00.439Z,99691.75
2022-08-18T07:02:46.989Z,99691.75
2022-08-18T07:05:23.871Z,99687.94
2022-08-18T07:08:15.615Z,99690.41
2022-08-18T07:10:48.567Z,99677.38
2022-08-18T07:13:26.469Z,99679.00
2022-08-18T07:15:56.861Z,99674.13
2022-08-18T07:18:27.886Z,99671.69
2022-08-18T07:21:00.258Z,99670.63
2022-08-18T07:23:38.318Z,99671.16
2022-08-18T07:26:10.292Z,99677.41
2022-08-18T07:28:41.843Z,99676.06
2022-08-18T07:31:17.402Z,99679.63
2022-08-18T07:33:51.775Z,99681.50
2022-08-18T07:36:21.692Z,99679.38
2022-08-18T07:38:54.668Z,99676.41
2022-08-18T07:41:26.778Z,99674.75
2022-08-18T07:44:09.872Z,99678.03
2022-08-18T07:46:45.323Z,99670.41
2022-08-18T07:49:21.981Z,99678.34
2022-08-18T07:51:55.525Z,99670.69
2022-08-18T07:54:48.935Z,99666.91
2022-08-18T07:57:25.815Z,99673.97
2022-08-18T07:59:58.273Z,99670.69
2022-08-18T08:02:37.737Z,99671.25
2022-08-18T08:05:15.361Z,99670.16
2022-08-18T08:07:50.391Z,99663.66
2022-08-18T08:10:33.738Z,99662.56
2022-08-18T08:13:10.067Z,99656.06
2022-08-18T08:15:44.573Z,99657.13
2022-08-18T08:18:14.080Z,99663.13
2022-08-18T08:20:45.959Z,99666.41
2022-08-18T08:23:24.136Z,99672.41
2022-08-18T08:26:11.570Z,99674.84
2022-08-18T08:28:43.840Z,99667.50
2022-08-18T08:31:36.336Z,99666.44
2022-08-18T08:34:06.113Z,99667.81
2022-08-18T08:36:37.142Z,99658.78
2022-08-18T08:39:15.831Z,99665.88
2022-08-18T08:41:47.116Z,99656.63
2022-08-18T08:44:23.683Z,99656.63
2022-08-18T08:46:55.370Z,99654.19
2022-08-18T08:49:38.620Z,99644.69
2022-08-18T08:52:11.508Z,99650.13
2022-08-18T08:54:47.916Z,99647.41
2022-08-18T08:57:17.141Z,99639.75
2022-08-18T08:59:47.846Z,99635.97
2022-08-18T09:02:54.915Z,99630.53
2022-08-18T09:05:25.474Z,99631.09
2022-08-18T09:08:11.721Z,99634.34
2022-08-18T09:11:00.129Z,99635.72
2022-08-18T09:13:43.025Z,99631.13
2022-08-18T09:16:22.886Z,99630.81
2022-08-18T09:19:13.773Z,99624.84
2022-08-18T09:21:45.803Z,99618.34
2022-08-18T09:24:22.101Z,99626.22
2022-08-18T09:26:57.194Z,99627.88
2022-08-18T09:29:28.284Z,99627.88
2022-08-18T09:32:33.440Z,99622.13
2022-08-18T09:35:27.657Z,99622.69
2022-08-18T09:38:12.779Z,99621.88
2022-08-18T09:41:04.920Z,99625.16
2022-08-18T09:43:39.949Z,99622.16
2022-08-18T09:46:12.417Z,99613.19
2022-08-18T09:48:43.857Z,99613.72
2022-08-18T09:51:23.502Z,99613.44
2022-08-18T09:54:13.256Z,99615.34
2022-08-18T10:00:31.225Z,99603.91
2022-08-18T10:03:12.560Z,99598.22
2022-08-18T10:05:43.869Z,99608.00
2022-08-18T10:08:35.297Z,99597.13
2022-08-18T10:11:16.690Z,99598.50
2022-08-18T10:13:56.216Z,99600.16
2022-08-18T10:16:31.168Z,99600.69
2022-08-18T10:19:09.485Z,99606.97
2022-08-18T10:22:11.039Z,99596.91
2022-08-18T10:24:43.036Z,99603.97
2022-08-18T10:27:36.737Z,99609.41
2022-08-18T10:30:07.105Z,99601.25
2022-08-18T10:32:53.984Z,99598.53
2022-08-18T10:35:56.733Z,99594.72
2022-08-18T10:38:49.652Z,99590.09
2022-08-18T10:41:25.847Z,99589.81
2022-08-18T10:43:57.811Z,99595.81
2022-08-18T10:49:25.882Z,99583.25
2022-08-18T10:52:29.363Z,99585.41
2022-08-18T10:55:12.416Z,99590.06
2022-08-18T10:58:01.506Z,99598.47
2022-08-18T11:00:50.546Z,99594.94
2022-08-18T11:06:21.821Z,99583.25
2022-08-18T11:08:55.170Z,99588.69
2022-08-18T11:11:37.541Z,99588.69
2022-08-18T11:14:15.866Z,99591.41
2022-08-18T11:16:50.579Z,99585.97
2022-08-18T11:19:24.508Z,99578.06
2022-08-18T11:21:54.487Z,99584.31
2022-08-18T11:24:25.888Z,99573.72
2022-08-18T11:26:55.874Z,99577.25
2022-08-18T11:29:32.086Z,99577.53
2022-08-18T11:32:06.432Z,99580.50
2022-08-18T11:34:45.805Z,99575.06
2022-08-18T11:37:28.253Z,99570.44
2022-08-18T11:43:29.855Z,99571.53
2022-08-18T11:46:14.059Z,99572.34
2022-08-18T11:48:52.084Z,99556.00
2022-08-18T11:54:24.686Z,99545.69
2022-08-18T11:56:54.611Z,99544.56
2022-08-18T11:59:55.196Z,99540.75
2022-08-18T12:02:26.008Z,99540.75
2022-08-18T12:05:03.201Z,99543.22
2022-08-18T12:07:37.694Z,99539.69
2022-08-18T12:10:25.883Z,99545.69
2022-08-18T12:12:59.865Z,99540.25
2022-08-18T12:18:28.669Z,99539.13
2022-08-18T12:20:59.291Z,99526.34
2022-08-18T12:23:38.375Z,99510.81
2022-08-18T12:26:27.320Z,99507.88
2022-08-18T12:29:04.656Z,99503.22
2022-08-18T12:31:42.735Z,99492.34
2022-08-18T12:34:17.828Z,99494.81
2022-08-18T12:36:47.573Z,99494.81
2022-08-18T12:39:17.137Z,99488.25
2022-08-18T12:41:47.929Z,99491.78
2022-08-18T12:44:18.264Z,99491.78
2022-08-18T12:46:46.395Z,99488.81
2022-08-18T12:49:19.632Z,99489.63
2022-08-18T12:51:50.322Z,99486.91
2022-08-18T12:54:20.074Z,99476.00
2022-08-18T12:56:55.248Z,99484.19
2022-08-18T12:59:25.592Z,99474.38
2022-08-18T13:04:43.075Z,99473.28
2022-08-18T13:07:13.427Z,99474.38
2022-08-18T13:09:53.812Z,99464.31
2022-08-18T13:12:25.582Z,99456.94
2022-08-18T13:14:55.748Z,99464.31
2022-08-18T13:17:30.005Z,99463.50
2022-08-18T13:20:05.845Z,99465.13
2022-08-18T13:22:35.407Z,99471.66
2022-08-18T13:25:07.059Z,99474.09
2022-08-18T13:27:45.212Z,99484.19
2022-08-18T13:30:17.026Z,99479.53
2022-08-18T13:33:05.502Z,99483.09
2022-08-18T13:35:38.123Z,99495.88
2022-08-18T13:38:18.878Z,99494.81
2022-08-18T13:40:53.824Z,99487.44
2022-08-18T13:43:26.048Z,99488.25
2022-08-18T13:45:56.549Z,99489.06
2022-08-18T13:48:26.497Z,99465.66
2022-08-18T13:50:56.666Z,99479.84
2022-08-18T13:53:27.250Z,99483.63
2022-08-18T13:55:58.852Z,99488.00
2022-08-18T13:58:29.826Z,99487.72
2022-08-18T14:01:22.579Z,99490.72
2022-08-18T14:03:50.142Z,99479.84
2022-08-18T14:06:22.475Z,99480.63
2022-08-18T14:08:55.118Z,99474.38
2022-08-18T14:11:27.910Z,99470.56
2022-08-18T14:14:04.506Z,99474.09
2022-08-18T14:16:34.039Z,99473.28
2022-08-18T14:19:30.279Z,99482.25
2022-08-18T14:22:16.926Z,99481.19
2022-08-18T14:25:04.925Z,99473.03
2022-08-18T14:27:35.782Z,99482.00
2022-08-18T14:30:07.843Z,99482.81
2022-08-18T14:32:36.756Z,99486.34
2022-08-18T14:35:34.264Z,99483.63
2022-08-18T14:38:09.828Z,99482.56
2022-08-18T14:40:41.865Z,99469.75
2022-08-18T14:43:14.277Z,99472.47
2022-08-18T14:45:48.979Z,99476.00
2022-08-18T14:48:21.591Z,99466.22
2022-08-18T14:50:52.586Z,99467.84
2022-08-18T14:53:23.178Z,99465.09
2022-08-18T14:55:53.493Z,99462.38
2022-08-18T14:58:26.492Z,99456.94
2022-08-18T15:00:58.081Z,99451.50
2022-08-18T15:03:31.568Z,99441.41
2022-08-18T15:06:04.711Z,99444.94
2022-08-18T15:08:35.415Z,99442.22
2022-08-18T15:11:11.384Z,99442.22
2022-08-18T15:13:43.606Z,99438.44
2022-08-18T15:16:16.063Z,99442.22
2022-08-18T15:18:45.973Z,99443.88
2022-08-18T15:21:35.226Z,99440.84
2022-08-18T15:24:24.500Z,99444.41
2022-08-18T15:26:57.874Z,99450.69
2022-08-18T15:29:32.331Z,99453.09
2022-08-18T15:32:10.160Z,99459.66
2022-08-18T15:34:46.306Z,99468.63
2022-08-18T15:37:19.777Z,99456.94
2022-08-18T15:39:55.527Z,99461.28
2022-08-18T15:42:25.514Z,99467.56
2022-08-18T15:44:58.322Z,99466.72
2022-08-18T15:47:42.497Z,99462.94
2022-08-18T15:50:26.032Z,99457.47
2022-08-18T15:52:57.703Z,99457.47
2022-08-18T15:55:29.133Z,99449.31
2022-08-18T15:58:11.032Z,99442.22
2022-08-18T16:00:42.685Z,99445.78
2022-08-18T16:03:21.833Z,99439.50
2022-08-18T16:05:53.442Z,99446.59
2022-08-18T16:08:23.319Z,99449.31
2022-08-18T16:10:52.611Z,99450.13
2022-08-18T16:13:26.298Z,99453.66
2022-08-18T16:15:54.335Z,99449.81
2022-08-18T16:18:24.814Z,99449.81
2022-08-18T16:20:56.658Z,99450.66
2022-08-18T16:23:26.237Z,99447.94
2022-08-18T16:25:54.359Z,99446.03
2022-08-18T16:28:34.730Z,99446.03
2022-08-18T16:31:05.958Z,99446.84
2022-08-18T16:33:36.619Z,99447.66
2022-08-18T16:36:06.772Z,99446.59
2022-08-18T16:38:37.017Z,99453.66
2022-08-18T16:41:11.317Z,99449.31
2022-08-18T16:43:44.414Z,99440.03
2022-08-18T16:46:14.213Z,99436.75
2022-08-18T16:48:45.905Z,99436.75
2022-08-18T16:51:15.732Z,99447.66
2022-08-18T16:53:45.837Z,99446.59
2022-08-18T16:56:15.756Z,99455.81
2022-08-18T16:59:02.303Z,99457.75
2022-08-18T17:01:51.033Z,99458.84
2022-08-18T17:04:22.948Z,99468.63
2022-08-18T17:06:52.179Z,99474.88
2022-08-18T17:09:21.420Z,99480.34
2022-08-18T17:11:51.905Z,99478.41
2022-08-18T17:14:21.988Z,99483.06
2022-08-18T17:16:54.323Z,99482.78
2022-08-18T17:19:26.206Z,99484.72
2022-08-18T17:21:55.277Z,99483.59
2022-08-18T17:24:31.919Z,99484.41
2022-08-18T17:27:19.198Z,99478.16
2022-08-18T17:30:03.310Z,99472.72
2022-08-18T17:35:14.229Z,99470.00
2022-08-18T17:37:49.430Z,99469.19
2022-08-18T17:40:21.169Z,99470.81
2022-08-18T17:42:51.578Z,99471.09
2022-08-18T17:45:22.196Z,99465.66
2022-08-18T17:47:55.332Z,99474.63
2022-08-18T17:50:46.093Z,99470.00
2022-08-18T17:53:15.830Z,99478.41
2022-08-18T17:55:46.569Z,99483.06
2022-08-18T17:58:29.389Z,99481.44
2022-08-18T18:00:58.904Z,99477.63
2022-08-18T18:03:28.583Z,99478.72
2022-08-18T18:06:04.705Z,99474.06
2022-08-18T18:08:52.336Z,99481.16
2022-08-18T18:11:26.524Z,99480.34
2022-08-18T18:13:55.784Z,99474.06
2022-08-18T18:16:28.480Z,99473.81
2022-08-18T18:19:01.608Z,99476.53
2022-08-18T18:22:00.958Z,99471.91
2022-08-18T18:24:24.200Z,99476.53
2022-08-18T18:26:53.653Z,99479.25
2022-08-18T18:29:29.294Z,99489.06
2022-08-18T18:32:02.701Z,99489.06
2022-08-18T18:34:39.520Z,99477.34
2022-08-18T18:37:25.055Z,99477.34
2022-08-18T18:39:57.660Z,99482.00
2022-08-18T18:42:27.861Z,99475.69
2022-08-18T18:44:58.256Z,99477.34
2022-08-18T18:47:45.497Z,99478.16
2022-08-18T18:50:18.564Z,99486.31
2022-08-18T18:53:08.893Z,99487.44
2022-08-18T18:55:41.251Z,99488.50
2022-08-18T18:58:15.813Z,99492.88
2022-08-18T19:00:55.853Z,99493.69
2022-08-18T19:03:29.787Z,99490.16
2022-08-18T19:06:14.096Z,99482.00
2022-08-18T19:08:50.547Z,99467.81
2022-08-18T19:11:22.488Z,99464.00
2022-08-18T19:13:55.333Z,99455.81
2022-08-18T19:16:26.028Z,99454.75
2022-08-18T19:18:57.985Z,99453.91
2022-08-18T19:22:04.914Z,99449.31
2022-08-18T19:24:44.649Z,99440.03
2022-08-18T19:27:23.195Z,99444.66
2022-08-18T19:29:54.960Z,99437.31
2022-08-18T19:32:29.071Z,99431.84
2022-08-18T19:34:58.656Z,99436.19
2022-08-18T19:37:32.355Z,99437.56
2022-08-18T19:40:07.408Z,99435.69
2022-08-18T19:42:40.738Z,99434.56
2022-08-18T19:45:16.862Z,99429.13
2022-08-18T19:47:49.986Z,99437.28
2022-08-18T19:50:24.647Z,99434.56
2022-08-18T19:53:02.438Z,99437.28
2022-08-18T19:55:36.921Z,99444.38
2022-08-18T19:58:15.459Z,99433.75
2022-08-18T20:00:47.305Z,99440.03
2022-08-18T20:03:51.539Z,99444.38
2022-08-18T20:06:42.508Z,99441.38
2022-08-18T20:09:35.738Z,99446.00
2022-08-18T20:12:23.063Z,99441.63
2022-08-18T20:15:00.825Z,99447.09
2022-08-18T20:17:30.077Z,99451.47
2022-08-18T20:20:18.304Z,99453.09
2022-08-18T20:22:48.050Z,99459.34
2022-08-18T20:25:41.571Z,99464.78
2022-08-18T20:28:35.283Z,99459.34
2022-08-18T20:31:13.197Z,99465.63
2022-08-18T20:33:46.204Z,99467.25
2022-08-18T20:36:25.433Z,99468.06
2022-08-18T20:38:55.674Z,99478.13
2022-08-18T20:41:43.506Z,99468.88
2022-08-18T20:44:40.400Z,99464.22
2022-08-18T20:47:38.253Z,99465.06
2022-08-18T20:50:43.213Z,99463.41
2022-08-18T20:53:18.676Z,99457.16
2022-08-18T20:55:57.338Z,99453.63
2022-08-18T20:58:28.243Z,99461.78
2022-08-18T21:01:00.291Z,99468.88
2022-08-18T21:03:36.226Z,99466.69
2022-08-18T21:06:05.589Z,99462.88
2022-08-18T21:08:36.469Z,99466.69
2022-08-18T21:11:07.014Z,99459.88
2022-08-18T21:13:40.682Z,99459.59
2022-08-18T21:16:12.478Z,99458.50
2022-08-18T21:18:47.574Z,99453.06
2022-08-18T21:21:26.826Z,99450.88
2022-08-18T21:23:57.347Z,99443.78
2022-08-18T21:26:26.972Z,99438.34
2022-08-18T21:29:00.389Z,99438.34
2022-08-18T21:31:43.952Z,99433.72
2022-08-18T21:34:18.417Z,99440.78
2022-08-18T21:36:53.671Z,99435.34
2022-08-18T21:39:23.174Z,99438.88
2022-08-18T21:41:55.229Z,99440.78
2022-08-18T21:44:26.423Z,99447.06
2022-08-18T21:47:06.501Z,99445.44
2022-08-18T21:49:35.818Z,99451.13
2022-08-18T21:52:05.486Z,99449.53
2022-08-18T21:54:34.917Z,99451.69
2022-08-18T21:57:23.436Z,99454.97
2022-08-18T22:00:18.424Z,99457.69
2022-08-18T22:02:52.185Z,99465.31
2022-08-18T22:05:29.518Z,99453.63
2022-08-18T22:08:20.394Z,99453.06
2022-08-18T22:11:41.800Z,99444.91
2022-08-18T22:14:36.133Z,99450.34
2022-08-18T22:17:30.459Z,99455.78
2022-08-18T22:20:47.641Z,99444.91
2022-08-18T22:23:46.267Z,99446.81
2022-08-18T22:26:19.159Z,99443.28
2022-08-18T22:28:53.866Z,99443.28
2022-08-18T22:31:23.549Z,99439.44
2022-08-18T22:33:53.331Z,99434.00
2022-08-18T22:36:24.909Z,99428.56
2022-08-18T22:38:55.475Z,99427.75
2022-08-18T22:41:25.633Z,99430.47
2022-08-18T22:43:57.604Z,99421.19
2022-08-18T22:46:29.116Z,99428.56
2022-08-18T22:48:58.572Z,99431.81
2022-08-18T22:51:28.965Z,99421.19
2022-08-18T22:53:59.224Z,99426.38
2022-08-18T22:56:34.925Z,99425.56
2022-08-18T22:59:13.969Z,99426.38
2022-08-18T23:01:46.308Z,99419.28
2022-08-18T23:04:16.755Z,99414.66
2022-08-18T23:06:52.317Z,99419.28
2022-08-18T23:09:25.136Z,99411.94
2022-08-18T23:11:55.845Z,99402.94
2022-08-18T23:14:25.398Z,99404.03
2022-08-18T23:16:54.444Z,99413.00
2022-08-18T23:19:23.730Z,99416.84
2022-08-18T23:21:53.232Z,99417.66
2022-08-18T23:24:24.975Z,99415.47
2022-08-18T23:26:54.709Z,99417.66
2022-08-18T23:29:23.851Z,99411.66
2022-08-18T23:31:51.913Z,99422.56
2022-08-18T23:34:23.152Z,99414.69
2022-08-18T23:36:56.559Z,99418.47
2022-08-18T23:39:27.428Z,99413.03
2022-08-18T23:41:56.759Z,99408.94
2022-08-18T23:44:27.477Z,99397.00
2022-08-18T23:46:58.050Z,99400.78
2022-08-18T23:49:29.127Z,99399.72
2022-08-18T23:51:58.386Z,99404.06
2022-08-18T23:54:31.094Z,99399.72
2022-08-18T23:57:00.771Z,99399.72
2022-08-18T23:59:30.113Z,99398.59
